Flight Track Log - Related Links

Times and Time Zones

All times are in EDT time to prevent confusion due to time zone crossing. See the WEW1540 flight status page for this flight to view local times or setup timezone preferences in your user account.

Time Position Orientation Groundspeed Altitude Reporting Facility
EDT Latitude Longitude Course Direction KTS MPH feet Rate Location/Type
Mon 07:58:25 PM 50.3000 -107.4667 78° East 130 150 8,700  Level Winnipeg Center
Mon 07:59:25 PM 50.3167 -107.4167 62° Northeast 150 173 9,000 150 Climbing Winnipeg Center
Mon 08:00:25 PM 50.3167 -107.3333 90° East 180 207 9,000  Level Winnipeg Center
Mon 08:01:25 PM 50.3167 -107.2667 90° East 190 219 9,000  Level Winnipeg Center
Mon 08:02:00 PM 50.3702 -107.0898 78° East  Level FlightAware Approximate
Mon 08:02:25 PM 50.3500 -107.1833 58° Northeast 190 219 9,000  Level Winnipeg Center
Mon 08:03:00 PM 50.3800 -107.0152 78° East  Level FlightAware Approximate
Mon 08:03:25 PM 50.3667 -107.0833 75° East 190 219 9,000  Level Winnipeg Center
Mon 08:04:00 PM 50.3898 -106.9405 78° East  Level FlightAware Approximate
Mon 08:04:25 PM 50.3833 -107.0167 69° East 190 219 9,000  Level Winnipeg Center
Mon 08:05:25 PM 50.3833 -106.9333 90° East 190 219 9,000  Level Winnipeg Center
Mon 08:06:25 PM 50.4000 -106.8500 73° East 190 219 9,000  Level Winnipeg Center
Mon 08:07:25 PM 50.4167 -106.7833 69° East 190 219 9,000  Level Winnipeg Center
Mon 08:08:25 PM 50.4167 -106.7000 90° East 190 219 9,000  Level Winnipeg Center
Mon 08:09:25 PM 50.4333 -106.6167 73° East 190 219 9,000  Level Winnipeg Center
Mon 08:10:25 PM 50.4333 -106.5167 90° East 190 219 9,000  Level Winnipeg Center
Mon 08:11:25 PM 50.4500 -106.4500 69° East 190 219 9,000  Level Winnipeg Center
Mon 08:12:25 PM 50.4500 -106.3667 90° East 190 219 9,000  Level Winnipeg Center
Mon 08:13:25 PM 50.4500 -106.2833 90° East 190 219 9,000  Level Winnipeg Center
Mon 08:14:25 PM 50.4833 -106.2167 52° Northeast 190 219 9,000  Level Winnipeg Center
Mon 08:15:17 PM 50.4833 -106.1333 90° East 200 230 9,000  Level Winnipeg Center
Mon 08:16:17 PM 50.4833 -106.0500 90° East 200 230 9,000  Level Winnipeg Center
Mon 08:17:17 PM 50.5167 -105.9833 52° Northeast 200 230 9,000  Level Winnipeg Center
Mon 08:18:17 PM 50.5167 -105.8833 90° East 200 230 9,000  Level Winnipeg Center
Mon 08:19:17 PM 50.5500 -105.8000 58° Northeast 200 230 9,000  Level Winnipeg Center
Mon 08:20:17 PM 50.5500 -105.7167 90° East 200 230 9,000  Level Winnipeg Center
Mon 08:21:17 PM 50.5667 -105.6167 75° East 200 230 9,000  Level Winnipeg Center
Mon 08:22:17 PM 50.5667 -105.5333 90° East 190 219 9,000  Level Winnipeg Center
Mon 08:23:17 PM 50.5667 -105.4667 90° East 200 230 9,000  Level Winnipeg Center
Mon 08:24:17 PM 50.5667 -105.3833 90° East 190 219 9,000  Level Winnipeg Center
Mon 08:25:17 PM 50.5500 -105.3000 107° East 200 230 9,000 -200 Level Winnipeg Center
Mon 08:26:17 PM 50.5333 -105.2167 107° East 200 230 8,600 -350 Descending Winnipeg Center
Mon 08:27:17 PM 50.5333 -105.1333 90° East 200 230 8,300 -600 Descending Winnipeg Center
Mon 08:28:17 PM 50.5167 -105.0333 105° East 200 230 7,400 -1,150 Descending Winnipeg Center
Mon 08:29:17 PM 50.4833 -104.9500 122° Southeast 210 242 6,000 -1,350 Descending Winnipeg Center
Mon 08:30:17 PM 50.4833 -104.8667 90° East 210 242 4,700 -1,450 Descending Winnipeg Center
Mon 08:31:17 PM 50.4500 -104.7833 122° Southeast 210 242 3,100 -800 Descending Winnipeg Center
Mon 08:32:17 PM 50.4333 -104.7333 118° Southeast 160 184 3,100 -550 Level Winnipeg Center
Mon 08:33:17 PM 50.4000 -104.7000 147° Southeast 110 127 2,000 -1,100 Descending Winnipeg Center

Login

Don't have an account? Register now (free) for customized features, flight alerts, and more!